Time;durP1;ratioP1;P1;durP2;ratioP2;P2;SDS_P1;SDS_P2;PMS_P1;PMS_P2;Temp;Humidity;BMP_temperature;BMP_pressure;BME280_temperature;BME280_humidity;BME280_pressure;Samples;Min_cycle;Max_cycle;Signal;HPM_P1;HPM_P2
2023/01/06 00:00:40;;;;;;;14.53;1.97;;;10.90;99.90;;;;;;4949416;28;20367;-88
2023/01/06 00:03:08;;;;;;;8.83;2.40;;;11.00;99.90;;;;;;4949405;28;20224;-89
2023/01/06 00:05:34;;;;;;;1.70;1.13;;;10.90;99.90;;;;;;4955460;28;20237;-89
2023/01/06 00:08:00;;;;;;;1.43;1.23;;;11.00;99.90;;;;;;4956286;28;20215;-88
2023/01/06 00:10:26;;;;;;;5.83;3.00;;;10.90;99.90;;;;;;4950148;28;20259;-89
2023/01/06 00:12:52;;;;;;;4.30;1.93;;;11.00;99.90;;;;;;4949338;28;20225;-88
2023/01/06 00:15:18;;;;;;;10.37;2.60;;;10.90;99.90;;;;;;4956738;28;20257;-89
2023/01/06 00:17:45;;;;;;;7.30;0.60;;;10.90;99.90;;;;;;4958810;28;20221;-88
2023/01/06 00:20:12;;;;;;;8.43;2.63;;;11.00;99.90;;;;;;4955487;28;20621;-90
2023/01/06 00:22:42;;;;;;;4.03;1.23;;;11.00;99.90;;;;;;4947077;28;20225;-89
2023/01/06 00:25:11;;;;;;;2.87;1.63;;;11.00;99.90;;;;;;4955373;28;20200;-90
2023/01/06 00:27:38;;;;;;;6.93;1.13;;;10.90;99.90;;;;;;4956964;28;21297;-89
2023/01/06 00:30:05;;;;;;;4.80;1.03;;;10.90;99.90;;;;;;4947411;28;20578;-88
2023/01/06 00:32:31;;;;;;;2.57;1.00;;;10.90;99.90;;;;;;4956626;28;20233;-88
2023/01/06 00:34:57;;;;;;;2.13;1.30;;;10.90;99.90;;;;;;4947152;28;20224;-93
2023/01/06 00:37:23;;;;;;;4.07;1.00;;;10.90;99.90;;;;;;4947577;28;20213;-90
2023/01/06 00:39:49;;;;;;;5.40;1.23;;;10.80;99.90;;;;;;4955685;28;20251;-90
2023/01/06 00:42:14;;;;;;;1.60;1.50;;;10.80;99.90;;;;;;4946066;28;20225;-89
2023/01/06 00:44:40;;;;;;;1.17;0.60;;;10.80;99.90;;;;;;4948132;28;20594;-88
2023/01/06 00:47:08;;;;;;;3.93;1.30;;;10.80;99.90;;;;;;4947043;28;20232;-89
2023/01/06 00:49:34;;;;;;;2.40;0.90;;;10.80;99.90;;;;;;4954476;28;20263;-89
2023/01/06 00:52:00;;;;;;;4.27;1.10;;;10.80;99.90;;;;;;4947280;28;20232;-89
2023/01/06 00:54:26;;;;;;;0.47;0.40;;;10.80;99.90;;;;;;4957058;28;20181;-89
2023/01/06 00:56:53;;;;;;;2.33;1.83;;;10.80;99.90;;;;;;4956319;28;20221;-92
2023/01/06 00:59:23;;;;;;;1.73;0.70;;;10.80;99.90;;;;;;4957324;28;20703;-89
2023/01/06 01:01:52;;;;;;;0.77;0.77;;;10.80;99.90;;;;;;4956137;28;20213;-88
2023/01/06 01:04:18;;;;;;;8.23;1.60;;;10.80;99.90;;;;;;4955269;28;20232;-89
2023/01/06 01:06:45;;;;;;;2.60;1.17;;;10.80;99.90;;;;;;4947857;28;20683;-90
2023/01/06 01:09:17;;;;;;;1.60;0.40;;;10.80;99.90;;;;;;4964353;28;20212;-91
2023/01/06 01:14:27;;;;;;;5.17;1.23;;;10.80;99.90;;;;;;4955169;28;20221;-86
2023/01/06 01:16:53;;;;;;;1.03;0.90;;;10.70;99.90;;;;;;4949932;28;20635;-88
2023/01/06 01:19:19;;;;;;;0.90;0.60;;;10.70;99.90;;;;;;4956581;28;20335;-87
2023/01/06 01:21:45;;;;;;;10.47;1.47;;;10.70;99.90;;;;;;4947290;28;20212;-90
2023/01/06 01:24:11;;;;;;;3.00;2.70;;;10.70;99.90;;;;;;4953000;28;20521;-86
2023/01/06 01:26:39;;;;;;;0.77;0.77;;;10.70;99.90;;;;;;4952770;28;20221;-87
2023/01/06 01:29:06;;;;;;;6.33;1.90;;;10.70;99.90;;;;;;4955448;28;20236;-88
2023/01/06 01:31:32;;;;;;;1.50;0.83;;;10.70;99.90;;;;;;4953827;28;20230;-86
2023/01/06 01:33:59;;;;;;;6.27;0.80;;;10.80;99.90;;;;;;4970376;28;20252;-89
2023/01/06 01:36:25;;;;;;;1.37;0.87;;;10.80;99.90;;;;;;4947962;28;20192;-87
2023/01/06 01:38:51;;;;;;;6.77;1.27;;;10.80;99.90;;;;;;4952759;28;20227;-87
2023/01/06 01:41:23;;;;;;;4.60;2.10;;;10.80;99.90;;;;;;4947080;28;20229;-89
2023/01/06 01:43:52;;;;;;;3.93;1.43;;;10.80;99.90;;;;;;4953629;28;20634;-86
2023/01/06 01:46:29;;;;;;;2.30;1.47;;;10.80;99.90;;;;;;4952132;28;20229;-88
2023/01/06 01:49:00;;;;;;;0.57;0.23;;;10.80;99.90;;;;;;4952388;28;20645;-85
2023/01/06 01:51:37;;;;;;;0.73;0.60;;;10.80;99.90;;;;;;4957322;28;20239;-87
2023/01/06 01:54:09;;;;;;;0.30;0.30;;;10.80;99.90;;;;;;4952211;28;20252;-85
2023/01/06 01:56:41;;;;;;;6.13;0.60;;;10.80;99.90;;;;;;4958890;28;20224;-92
2023/01/06 01:59:20;;;;;;;7.47;3.00;;;10.80;99.90;;;;;;4953624;28;20328;-87
2023/01/06 02:01:48;;;;;;;2.47;2.37;;;10.80;99.90;;;;;;4956625;28;20459;-88
2023/01/06 02:04:16;;;;;;;1.23;1.00;;;10.80;99.90;;;;;;4958444;28;20209;-89
2023/01/06 02:06:42;;;;;;;2.77;0.60;;;10.80;99.90;;;;;;4955161;28;20208;-91
2023/01/06 02:09:43;;;;;;;8.90;1.00;;;10.80;99.90;;;;;;4954913;28;20597;-87
2023/01/06 02:12:10;;;;;;;3.30;1.40;;;10.80;99.90;;;;;;4952969;28;20280;-88
2023/01/06 02:14:35;;;;;;;3.47;1.93;;;10.80;99.90;;;;;;4940577;28;20578;-89
2023/01/06 02:17:04;;;;;;;0.83;0.50;;;10.80;99.90;;;;;;4945124;28;20217;-92
2023/01/06 02:19:30;;;;;;;0.80;0.60;;;10.80;99.90;;;;;;4955776;28;20685;-89
2023/01/06 02:22:14;;;;;;;2.53;0.60;;;10.80;99.90;;;;;;4955842;28;20199;-87
2023/01/06 02:25:11;;;;;;;0.70;0.70;;;10.80;99.90;;;;;;4957596;28;20198;-90
2023/01/06 02:28:18;;;;;;;1.27;1.03;;;10.80;99.90;;;;;;4955501;28;20259;-92
2023/01/06 02:31:21;;;;;;;1.33;0.90;;;10.90;99.90;;;;;;4972623;28;20241;-91
2023/01/06 02:34:22;;;;;;;9.13;0.90;;;10.90;99.90;;;;;;4976214;28;20237;-88
2023/01/06 02:37:21;;;;;;;0.40;0.37;;;10.90;99.90;;;;;;4956607;28;20212;-88
2023/01/06 02:40:29;;;;;;;7.43;1.20;;;10.90;99.90;;;;;;4959120;28;20748;-88
2023/01/06 02:43:33;;;;;;;1.60;0.93;;;10.90;99.90;;;;;;4961943;28;20489;-89
2023/01/06 02:46:27;;;;;;;0.80;0.80;;;10.90;99.90;;;;;;4957074;28;20299;-91
2023/01/06 02:48:58;;;;;;;9.10;0.77;;;10.90;99.90;;;;;;4956598;28;20208;-88
2023/01/06 02:51:42;;;;;;;0.77;0.77;;;11.00;99.90;;;;;;4956427;28;20220;-89
2023/01/06 02:54:44;;;;;;;1.00;0.43;;;10.90;99.90;;;;;;4953324;28;20237;-88
2023/01/06 02:57:21;;;;;;;4.63;0.67;;;10.90;99.90;;;;;;4956460;28;20221;-89
2023/01/06 03:00:10;;;;;;;3.17;0.80;;;11.00;99.90;;;;;;4955373;28;20299;-88
2023/01/06 03:02:38;;;;;;;0.70;0.70;;;10.90;99.90;;;;;;4957105;28;20252;-88
2023/01/06 03:05:05;;;;;;;2.93;0.57;;;11.00;99.90;;;;;;4971720;28;20311;-90
2023/01/06 03:07:32;;;;;;;1.13;0.63;;;11.00;99.90;;;;;;4957107;28;20227;-89
2023/01/06 03:10:00;;;;;;;1.83;0.93;;;10.90;99.90;;;;;;4958326;28;20189;-87
2023/01/06 03:12:34;;;;;;;3.13;0.80;;;11.00;99.90;;;;;;4977499;28;20549;-87
2023/01/06 03:15:00;;;;;;;11.27;1.13;;;11.00;99.90;;;;;;4957989;28;20220;-90
2023/01/06 03:17:26;;;;;;;0.40;0.40;;;10.90;99.90;;;;;;4949731;28;20216;-89
2023/01/06 03:19:52;;;;;;;0.90;0.90;;;10.90;99.90;;;;;;4956304;28;20237;-89
2023/01/06 03:22:19;;;;;;;0.90;0.90;;;11.00;99.90;;;;;;4957076;28;20819;-91
2023/01/06 03:24:46;;;;;;;0.67;0.67;;;11.00;99.90;;;;;;4956293;28;20607;-91
2023/01/06 03:27:11;;;;;;;2.03;1.67;;;11.00;99.90;;;;;;4953653;28;20224;-89
2023/01/06 03:29:38;;;;;;;1.20;0.80;;;11.00;99.90;;;;;;4956655;28;20232;-90
2023/01/06 03:32:31;;;;;;;2.33;1.00;;;11.00;99.90;;;;;;4952814;28;20249;-89
2023/01/06 03:35:36;;;;;;;1.23;0.90;;;10.90;99.90;;;;;;4954926;28;20227;-90
2023/01/06 03:38:13;;;;;;;0.80;0.80;;;10.90;99.90;;;;;;4957944;28;20232;-90
2023/01/06 03:40:42;;;;;;;3.83;0.90;;;10.90;99.90;;;;;;4958339;28;20220;-90
2023/01/06 03:43:15;;;;;;;0.90;0.83;;;10.80;99.90;;;;;;4970744;28;20651;-88
2023/01/06 03:45:55;;;;;;;1.20;0.93;;;10.80;99.90;;;;;;4957649;28;20197;-90
2023/01/06 03:48:33;;;;;;;1.20;1.07;;;10.80;99.90;;;;;;4954993;28;20261;-91
2023/01/06 03:51:24;;;;;;;3.90;1.10;;;10.80;99.90;;;;;;4955999;28;20586;-91
2023/01/06 03:54:06;;;;;;;3.10;1.63;;;10.80;99.90;;;;;;4956867;28;20307;-91
2023/01/06 03:56:46;;;;;;;3.40;1.87;;;10.80;99.90;;;;;;4954288;28;20217;-89
2023/01/06 03:59:17;;;;;;;8.30;1.97;;;10.80;99.90;;;;;;4957166;28;20217;-90
2023/01/06 04:01:43;;;;;;;2.13;1.90;;;10.80;99.90;;;;;;4958158;28;20224;-90
2023/01/06 04:04:09;;;;;;;2.57;2.37;;;10.70;99.90;;;;;;4953173;28;20224;-88
2023/01/06 04:06:35;;;;;;;2.47;2.27;;;10.70;99.90;;;;;;4954892;28;20236;-91
2023/01/06 04:09:01;;;;;;;2.80;2.00;;;10.70;99.90;;;;;;4948739;28;20221;-90
2023/01/06 04:14:10;;;;;;;3.80;2.83;;;10.70;99.90;;;;;;4959681;28;20236;-90
2023/01/06 04:16:36;;;;;;;4.70;2.30;;;10.70;99.90;;;;;;4955140;28;20237;-88
2023/01/06 04:19:02;;;;;;;2.47;1.77;;;10.70;99.90;;;;;;4955436;28;20193;-87
2023/01/06 04:21:28;;;;;;;2.97;2.67;;;10.70;99.90;;;;;;4972862;28;20236;-90
2023/01/06 04:23:54;;;;;;;2.23;1.53;;;10.70;99.90;;;;;;4956525;28;20232;-87
2023/01/06 04:26:20;;;;;;;2.43;2.00;;;10.70;99.90;;;;;;4956257;28;20224;-90
2023/01/06 04:28:45;;;;;;;3.17;2.87;;;10.70;99.90;;;;;;4954173;28;20237;-90
2023/01/06 04:31:11;;;;;;;2.90;2.63;;;10.70;99.90;;;;;;4947961;28;20291;-91
2023/01/06 04:33:37;;;;;;;3.47;2.93;;;10.70;99.90;;;;;;4953835;28;20315;-90
2023/01/06 04:36:03;;;;;;;4.40;3.00;;;10.80;99.90;;;;;;4940086;28;20217;-89
2023/01/06 04:38:29;;;;;;;3.13;2.33;;;10.80;99.90;;;;;;4958753;28;20217;-90
2023/01/06 04:40:55;;;;;;;4.27;2.13;;;10.80;99.90;;;;;;4955055;28;20225;-89
2023/01/06 04:43:22;;;;;;;2.93;2.53;;;10.80;99.90;;;;;;4946275;28;20902;-90
2023/01/06 04:45:48;;;;;;;2.50;2.30;;;10.80;99.90;;;;;;4957231;28;20245;-90
2023/01/06 04:48:13;;;;;;;2.77;2.53;;;10.80;99.90;;;;;;4972807;28;20300;-90
2023/01/06 04:50:39;;;;;;;2.80;1.70;;;10.80;99.90;;;;;;4946958;28;20828;-92
2023/01/06 04:53:06;;;;;;;2.10;1.83;;;10.80;99.90;;;;;;4947021;28;20315;-92
2023/01/06 04:55:32;;;;;;;5.00;1.70;;;10.80;99.90;;;;;;4952423;28;20212;-89
2023/01/06 04:57:58;;;;;;;2.30;1.87;;;10.80;99.90;;;;;;4956773;28;20549;-90
2023/01/06 05:00:24;;;;;;;2.50;1.17;;;10.80;99.90;;;;;;4951365;28;20197;-90
2023/01/06 05:02:50;;;;;;;3.30;1.77;;;10.80;99.90;;;;;;4947091;28;20228;-89
2023/01/06 05:05:16;;;;;;;1.60;1.50;;;10.80;99.90;;;;;;4955691;28;20220;-86
2023/01/06 05:07:42;;;;;;;2.53;1.87;;;10.70;99.90;;;;;;4947681;28;20582;-91
2023/01/06 05:10:09;;;;;;;2.97;1.80;;;10.70;99.90;;;;;;4955146;28;20203;-91
2023/01/06 05:12:35;;;;;;;1.13;0.77;;;10.70;99.90;;;;;;4956473;28;20239;-88
2023/01/06 05:15:01;;;;;;;2.10;1.67;;;10.60;99.90;;;;;;4956522;28;20378;-89
2023/01/06 05:17:30;;;;;;;3.90;2.53;;;10.70;99.90;;;;;;4954379;28;20814;-90
2023/01/06 05:19:55;;;;;;;1.80;1.20;;;10.70;99.90;;;;;;4951118;28;20295;-89
2023/01/06 05:22:24;;;;;;;1.30;1.20;;;10.60;99.90;;;;;;4946536;28;20621;-89
2023/01/06 05:24:49;;;;;;;2.20;2.00;;;10.60;99.90;;;;;;4955648;28;20366;-89
2023/01/06 05:27:15;;;;;;;1.10;1.00;;;10.50;99.90;;;;;;4952523;28;20307;-89
2023/01/06 05:29:41;;;;;;;1.13;1.03;;;10.50;99.90;;;;;;4946081;28;20642;-88
2023/01/06 05:32:07;;;;;;;1.33;1.23;;;10.40;99.90;;;;;;4945631;28;20232;-92
2023/01/06 05:34:32;;;;;;;0.80;0.80;;;10.40;99.90;;;;;;4954969;28;20232;-88
2023/01/06 05:37:01;;;;;;;2.30;1.17;;;10.40;99.90;;;;;;4954775;28;20195;-88
2023/01/06 05:39:27;;;;;;;2.90;1.77;;;10.40;99.90;;;;;;4957029;28;20228;-87
2023/01/06 05:41:52;;;;;;;0.97;0.90;;;10.40;99.90;;;;;;4932618;28;20730;-90
2023/01/06 05:44:18;;;;;;;1.47;1.40;;;10.30;99.90;;;;;;4955131;28;20481;-89
2023/01/06 05:46:44;;;;;;;3.80;1.77;;;10.30;99.90;;;;;;4950992;28;20231;-90
2023/01/06 05:49:09;;;;;;;1.37;1.27;;;10.30;99.90;;;;;;4944138;28;20658;-89
2023/01/06 05:51:35;;;;;;;1.40;1.20;;;10.30;99.90;;;;;;4952400;28;20835;-88
2023/01/06 05:54:01;;;;;;;1.37;1.00;;;10.30;99.90;;;;;;4952081;28;20241;-88
2023/01/06 05:56:27;;;;;;;3.23;2.13;;;10.30;99.90;;;;;;4951906;28;20315;-93
2023/01/06 05:58:53;;;;;;;1.30;1.20;;;10.30;99.90;;;;;;4953519;28;20224;-86
2023/01/06 06:01:24;;;;;;;1.37;1.27;;;10.30;99.90;;;;;;4955573;28;20679;-87
2023/01/06 06:03:52;;;;;;;1.43;1.10;;;10.30;99.90;;;;;;4954862;28;20196;-88
2023/01/06 06:06:21;;;;;;;1.40;1.30;;;10.30;99.90;;;;;;4968541;28;20221;-87
2023/01/06 06:08:47;;;;;;;0.80;0.80;;;10.30;99.90;;;;;;4957702;28;20228;-90
2023/01/06 06:11:15;;;;;;;1.47;1.37;;;10.40;99.90;;;;;;4949768;28;20257;-87
2023/01/06 06:13:52;;;;;;;1.10;1.03;;;10.40;99.90;;;;;;4949082;28;20228;-90
2023/01/06 06:16:20;;;;;;;1.23;1.17;;;10.50;99.90;;;;;;4973236;28;20247;-88
2023/01/06 06:18:52;;;;;;;1.47;1.37;;;10.50;99.90;;;;;;4953186;28;20248;-87
2023/01/06 06:21:21;;;;;;;3.83;1.30;;;10.50;99.90;;;;;;4952123;28;20231;-87
2023/01/06 06:23:47;;;;;;;4.27;1.87;;;10.60;99.90;;;;;;4959009;28;20657;-90
2023/01/06 06:26:13;;;;;;;2.67;1.93;;;10.60;99.90;;;;;;4951590;28;20320;-88
2023/01/06 06:28:39;;;;;;;2.13;1.00;;;10.60;99.90;;;;;;4948259;28;20328;-89
2023/01/06 06:31:07;;;;;;;3.23;1.33;;;10.60;99.90;;;;;;4961713;28;20748;-85
2023/01/06 06:33:34;;;;;;;1.40;1.30;;;10.70;99.90;;;;;;4956737;28;20217;-88
2023/01/06 06:36:01;;;;;;;1.03;0.83;;;10.70;99.90;;;;;;4943458;28;20217;-92
2023/01/06 06:38:27;;;;;;;1.00;1.00;;;10.70;99.90;;;;;;4956827;28;20237;-93
2023/01/06 06:40:53;;;;;;;3.10;1.17;;;10.70;99.90;;;;;;4949262;28;20267;-92
2023/01/06 06:43:19;;;;;;;2.23;1.53;;;10.80;99.90;;;;;;4949634;28;20224;-89
2023/01/06 06:45:46;;;;;;;0.63;0.63;;;10.70;99.90;;;;;;4956455;28;20861;-87
2023/01/06 06:48:12;;;;;;;2.93;0.40;;;10.80;99.90;;;;;;4957623;28;20256;-89
2023/01/06 06:50:38;;;;;;;0.40;0.40;;;10.70;99.90;;;;;;4961529;28;20244;-91
2023/01/06 06:53:06;;;;;;;0.60;0.60;;;10.10;99.90;;;;;;4959707;28;20277;-90
2023/01/06 06:55:33;;;;;;;10.93;0.70;;;9.70;99.90;;;;;;4957092;28;20733;-89
2023/01/06 06:57:58;;;;;;;4.70;0.73;;;9.60;99.90;;;;;;4953863;28;20188;-92
2023/01/06 07:00:24;;;;;;;1.13;1.13;;;9.40;99.90;;;;;;4960308;28;20189;-89
2023/01/06 07:02:50;;;;;;;0.20;0.20;;;9.30;99.90;;;;;;4959842;28;20236;-89
2023/01/06 07:05:17;;;;;;;0.53;0.53;;;9.20;99.90;;;;;;4954619;28;20251;-90
2023/01/06 07:07:44;;;;;;;0.30;0.30;;;9.20;99.90;;;;;;4971570;28;20288;-91
2023/01/06 07:10:15;;;;;;;6.73;0.90;;;9.10;99.90;;;;;;4974117;28;20635;-90
2023/01/06 07:12:41;;;;;;;2.77;0.43;;;9.00;99.90;;;;;;4954385;28;20328;-90
2023/01/06 07:15:07;;;;;;;0.30;0.30;;;9.00;99.90;;;;;;4957847;28;20769;-91
2023/01/06 07:17:33;;;;;;;1.10;0.57;;;8.90;99.90;;;;;;4955695;28;20317;-92
2023/01/06 07:19:58;;;;;;;0.53;0.53;;;8.90;99.90;;;;;;4957565;28;20321;-92
2023/01/06 07:22:24;;;;;;;1.47;1.23;;;8.80;99.90;;;;;;4958749;28;20268;-91
2023/01/06 07:24:50;;;;;;;0.27;0.27;;;8.80;99.90;;;;;;4958190;28;20669;-90
2023/01/06 07:27:16;;;;;;;0.20;0.20;;;8.80;99.90;;;;;;4955700;28;20220;-89
2023/01/06 07:29:42;;;;;;;1.23;1.13;;;8.70;99.90;;;;;;4949670;28;20341;-91
2023/01/06 07:32:08;;;;;;;9.73;0.83;;;8.70;99.90;;;;;;4959977;28;20235;-91
2023/01/06 07:34:34;;;;;;;1.90;1.03;;;8.70;99.90;;;;;;4939140;28;20224;-91
2023/01/06 07:37:00;;;;;;;0.30;0.30;;;8.70;99.90;;;;;;4959140;28;20188;-91
2023/01/06 07:39:25;;;;;;;2.00;0.97;;;8.70;99.90;;;;;;4948764;28;20189;-91
2023/01/06 07:41:51;;;;;;;1.40;1.40;;;8.70;99.90;;;;;;4956369;28;20216;-91
2023/01/06 07:44:17;;;;;;;1.40;1.03;;;8.70;99.90;;;;;;4948483;28;20308;-91
2023/01/06 07:46:43;;;;;;;0.63;0.63;;;8.60;99.90;;;;;;4947874;28;20681;-90
2023/01/06 07:49:08;;;;;;;0.93;0.53;;;8.60;99.90;;;;;;4957482;28;20626;-91
2023/01/06 07:51:34;;;;;;;4.00;1.00;;;8.60;99.90;;;;;;4943860;28;20557;-91
2023/01/06 07:54:00;;;;;;;15.63;0.83;;;8.60;99.90;;;;;;4956951;28;20704;-91
2023/01/06 07:56:26;;;;;;;0.60;0.40;;;8.60;99.90;;;;;;4956816;28;20312;-90
2023/01/06 07:58:53;;;;;;;1.37;1.10;;;8.60;99.90;;;;;;4947640;28;20364;-90
2023/01/06 08:01:19;;;;;;;0.57;0.57;;;8.50;99.90;;;;;;4959165;28;20308;-92
2023/01/06 08:03:45;;;;;;;5.00;1.07;;;8.50;99.90;;;;;;4957327;28;20247;-91
2023/01/06 08:06:11;;;;;;;0.83;0.70;;;8.50;99.90;;;;;;4957393;28;20248;-90
2023/01/06 08:08:41;;;;;;;1.50;1.13;;;8.50;99.90;;;;;;4957525;28;20459;-89
2023/01/06 08:11:10;;;;;;;2.73;2.10;;;8.50;99.90;;;;;;4956070;28;20229;-90
2023/01/06 08:13:36;;;;;;;2.33;0.77;;;8.50;99.90;;;;;;4953059;28;20224;-93
2023/01/06 08:16:09;;;;;;;9.80;1.07;;;8.60;99.90;;;;;;4956433;28;20181;-91
2023/01/06 08:18:35;;;;;;;3.40;0.83;;;8.70;99.90;;;;;;4972170;28;20196;-93
2023/01/06 08:21:07;;;;;;;5.13;1.77;;;8.70;99.90;;;;;;4956225;28;20229;-93
2023/01/06 08:23:33;;;;;;;0.40;0.40;;;8.70;99.90;;;;;;4971402;28;20217;-90
2023/01/06 08:26:06;;;;;;;4.80;1.40;;;8.80;99.90;;;;;;4957312;28;20217;-92
2023/01/06 08:28:32;;;;;;;1.83;1.23;;;8.80;99.90;;;;;;4956146;28;20243;-92
2023/01/06 08:30:58;;;;;;;0.73;0.73;;;8.80;99.90;;;;;;4948573;28;20287;-92
2023/01/06 08:33:24;;;;;;;8.90;2.00;;;8.80;99.90;;;;;;4950223;28;20318;-93
2023/01/06 08:35:59;;;;;;;0.90;0.87;;;8.80;99.90;;;;;;4962013;28;20221;-91
2023/01/06 08:38:25;;;;;;;3.97;0.77;;;8.90;99.90;;;;;;4990246;28;20219;-89
2023/01/06 08:40:52;;;;;;;2.63;1.20;;;8.90;99.90;;;;;;4951494;28;20236;-92
2023/01/06 08:43:18;;;;;;;2.20;0.57;;;8.90;99.90;;;;;;4959055;28;20227;-92
2023/01/06 08:45:44;;;;;;;0.97;0.50;;;8.90;99.90;;;;;;4955562;28;20188;-92
2023/01/06 08:48:10;;;;;;;6.03;0.87;;;8.90;99.90;;;;;;4958094;28;20251;-91
2023/01/06 08:50:40;;;;;;;5.03;0.70;;;8.90;99.90;;;;;;4956417;28;20221;-91
2023/01/06 08:53:07;;;;;;;1.90;1.17;;;9.00;99.90;;;;;;4955216;28;20225;-90
2023/01/06 08:55:33;;;;;;;1.30;1.20;;;8.90;99.90;;;;;;4953967;28;20216;-91
2023/01/06 08:57:58;;;;;;;0.37;0.37;;;8.90;99.90;;;;;;4952654;28;20557;-91
2023/01/06 09:00:24;;;;;;;10.60;1.00;;;9.10;99.90;;;;;;4947133;28;20201;-91
2023/01/06 09:02:50;;;;;;;0.43;0.43;;;9.10;99.90;;;;;;4971768;28;20236;-91
2023/01/06 09:05:16;;;;;;;0.60;0.60;;;9.10;99.90;;;;;;4957945;28;20212;-90
2023/01/06 09:07:42;;;;;;;10.90;0.93;;;9.20;99.90;;;;;;4947059;28;20301;-90
2023/01/06 09:10:08;;;;;;;1.27;1.20;;;9.30;99.90;;;;;;4955093;28;20272;-91
2023/01/06 09:12:38;;;;;;;0.37;0.37;;;9.30;99.90;;;;;;4954427;28;20950;-91
2023/01/06 09:15:04;;;;;;;2.67;1.00;;;9.30;99.90;;;;;;4941180;28;20232;-91
2023/01/06 09:17:30;;;;;;;1.13;1.13;;;9.30;99.90;;;;;;4965940;28;20693;-90
2023/01/06 09:19:56;;;;;;;10.77;0.83;;;9.40;99.90;;;;;;4952684;28;20236;-90
2023/01/06 09:22:22;;;;;;;7.10;0.87;;;9.50;99.90;;;;;;4954267;28;20221;-91
2023/01/06 09:24:47;;;;;;;0.57;0.53;;;9.50;99.90;;;;;;4946436;28;20216;-91
2023/01/06 09:27:13;;;;;;;0.83;0.83;;;9.50;99.90;;;;;;4946595;28;20260;-91
2023/01/06 09:29:39;;;;;;;1.43;0.60;;;9.60;99.90;;;;;;4945557;28;20245;-91
2023/01/06 09:32:05;;;;;;;8.80;0.60;;;9.60;99.90;;;;;;4947072;28;20251;-92
2023/01/06 09:34:31;;;;;;;1.40;0.63;;;9.70;99.90;;;;;;4954953;28;20209;-91
2023/01/06 09:36:57;;;;;;;0.20;0.20;;;9.80;99.90;;;;;;4947645;28;20196;-91
2023/01/06 09:39:23;;;;;;;0.40;0.40;;;9.70;99.90;;;;;;4955164;28;20427;-91
2023/01/06 09:41:55;;;;;;;2.00;0.47;;;9.70;99.90;;;;;;4955346;28;20256;-91
2023/01/06 09:44:54;;;;;;;2.33;1.13;;;9.70;99.90;;;;;;4954883;28;20224;-91
2023/01/06 09:47:24;;;;;;;0.20;0.20;;;9.80;99.90;;;;;;4952065;28;20213;-92
2023/01/06 09:50:16;;;;;;;2.27;2.07;;;9.90;99.90;;;;;;4953948;28;20217;-92
2023/01/06 09:52:53;;;;;;;2.37;0.70;;;9.90;99.90;;;;;;4955285;28;20379;-91
2023/01/06 09:55:30;;;;;;;0.30;0.30;;;9.90;99.90;;;;;;4971838;28;20262;-88
2023/01/06 09:58:19;;;;;;;6.40;1.77;;;9.80;99.90;;;;;;4955113;28;20188;-90
2023/01/06 10:00:48;;;;;;;5.80;1.07;;;9.80;99.90;;;;;;4952556;28;20654;-88
2023/01/06 10:03:17;;;;;;;0.33;0.33;;;9.80;99.90;;;;;;4953690;28;20230;-89
2023/01/06 10:06:17;;;;;;;0.50;0.50;;;9.80;99.90;;;;;;4953041;28;20233;-89
2023/01/06 10:08:45;;;;;;;0.80;0.33;;;9.90;99.90;;;;;;4955196;28;20240;-86
2023/01/06 10:11:18;;;;;;;0.83;0.83;;;9.90;99.90;;;;;;4953570;28;20228;-86
2023/01/06 10:13:55;;;;;;;1.23;0.60;;;10.00;99.90;;;;;;4952633;28;20257;-87
2023/01/06 10:16:46;;;;;;;4.43;0.83;;;9.90;99.90;;;;;;4955073;28;20216;-88
2023/01/06 10:19:59;;;;;;;0.30;0.30;;;9.90;99.90;;;;;;4955969;28;20185;-87
2023/01/06 10:22:49;;;;;;;0.43;0.43;;;9.90;99.90;;;;;;4937852;28;20235;-88
2023/01/06 10:25:19;;;;;;;11.23;1.47;;;9.90;99.90;;;;;;4967997;28;20177;-89
2023/01/06 10:27:54;;;;;;;1.63;0.87;;;9.90;99.90;;;;;;4957469;28;20664;-86
2023/01/06 10:30:28;;;;;;;1.03;0.50;;;9.90;99.90;;;;;;4971555;28;20232;-88
2023/01/06 10:32:53;;;;;;;1.00;0.47;;;10.00;99.90;;;;;;4956233;28;20224;-88
2023/01/06 10:35:23;;;;;;;0.97;0.97;;;9.90;99.90;;;;;;4940315;28;20216;-91
2023/01/06 10:37:50;;;;;;;1.47;1.37;;;10.00;99.90;;;;;;4957091;28;20216;-85
2023/01/06 10:40:24;;;;;;;9.50;0.87;;;10.00;99.90;;;;;;4955294;28;20689;-87
2023/01/06 10:42:59;;;;;;;2.73;0.97;;;10.00;99.90;;;;;;4954726;28;20192;-88
2023/01/06 10:45:41;;;;;;;2.63;1.13;;;10.00;99.90;;;;;;4955803;28;20244;-87
2023/01/06 10:48:14;;;;;;;2.67;0.40;;;10.10;99.90;;;;;;4954713;28;20227;-87
2023/01/06 10:50:40;;;;;;;3.77;1.17;;;10.00;99.90;;;;;;4957206;28;20232;-89
2023/01/06 10:53:06;;;;;;;3.27;0.87;;;10.00;99.90;;;;;;4958377;28;20229;-88
2023/01/06 10:55:40;;;;;;;0.33;0.33;;;10.00;99.90;;;;;;4958604;28;20263;-87
2023/01/06 10:58:13;;;;;;;21.00;0.90;;;10.00;99.90;;;;;;4964241;28;20160;-87
2023/01/06 11:01:00;;;;;;;2.00;0.93;;;10.00;99.90;;;;;;4972926;28;20193;-88
2023/01/06 11:03:27;;;;;;;0.43;0.40;;;10.00;99.90;;;;;;4958484;28;20228;-88
2023/01/06 11:06:05;;;;;;;1.43;1.07;;;10.10;99.90;;;;;;4949926;28;20594;-86
2023/01/06 11:08:31;;;;;;;0.23;0.23;;;10.20;99.90;;;;;;4958857;28;20549;-88
2023/01/06 11:10:57;;;;;;;2.10;1.43;;;10.30;99.90;;;;;;4958171;28;20209;-87
2023/01/06 11:13:30;;;;;;;1.40;0.20;;;10.30;99.90;;;;;;4970060;28;20233;-87
2023/01/06 11:15:57;;;;;;;2.20;0.57;;;10.30;99.90;;;;;;4957441;28;20411;-86
2023/01/06 11:18:29;;;;;;;1.73;0.87;;;10.30;99.90;;;;;;4956583;28;20592;-87
2023/01/06 11:21:06;;;;;;;1.23;0.73;;;10.30;99.90;;;;;;4972964;28;20216;-87
2023/01/06 11:23:32;;;;;;;0.90;0.63;;;10.30;99.90;;;;;;4953976;28;20220;-85
2023/01/06 11:26:14;;;;;;;0.40;0.40;;;10.20;99.90;;;;;;4958269;28;20220;-87
2023/01/06 11:28:46;;;;;;;1.20;0.40;;;10.20;99.90;;;;;;4969824;28;20323;-86
2023/01/06 11:31:19;;;;;;;2.33;0.60;;;10.20;99.90;;;;;;4953936;28;20646;-85
2023/01/06 11:34:03;;;;;;;4.60;1.13;;;10.30;99.90;;;;;;4953173;28;20209;-87
2023/01/06 11:36:32;;;;;;;0.20;0.20;;;10.20;99.90;;;;;;4958870;28;20304;-86
2023/01/06 11:38:59;;;;;;;5.80;1.43;;;10.40;99.90;;;;;;4956548;28;20217;-88
2023/01/06 11:41:30;;;;;;;0.53;0.53;;;10.40;99.90;;;;;;4956530;28;20225;-88
2023/01/06 11:44:08;;;;;;;1.93;1.50;;;10.40;99.90;;;;;;4954939;28;20311;-87
2023/01/06 11:46:36;;;;;;;0.53;0.53;;;10.50;99.90;;;;;;4952819;28;20526;-86
2023/01/06 11:49:09;;;;;;;9.90;2.97;;;10.40;99.90;;;;;;4969453;28;20553;-86
2023/01/06 11:51:47;;;;;;;0.23;0.23;;;10.40;99.90;;;;;;4973583;28;20182;-86
2023/01/06 11:54:37;;;;;;;0.33;0.33;;;10.40;99.90;;;;;;4956148;28;20703;-86
2023/01/06 11:57:15;;;;;;;1.23;0.53;;;10.50;99.90;;;;;;4952461;28;20316;-88
2023/01/06 12:00:01;;;;;;;10.47;2.00;;;10.40;99.90;;;;;;4956554;28;20229;-87
2023/01/06 12:03:06;;;;;;;0.57;0.57;;;10.30;99.90;;;;;;4931749;28;20701;-87
2023/01/06 12:05:54;;;;;;;8.33;1.00;;;10.30;99.90;;;;;;4955458;28;20228;-86
2023/01/06 12:08:25;;;;;;;0.10;0.10;;;10.20;99.90;;;;;;4971142;28;20231;-87
2023/01/06 12:10:57;;;;;;;0.20;0.20;;;10.20;99.90;;;;;;4956138;28;20224;-86
2023/01/06 12:13:24;;;;;;;1.33;1.03;;;10.20;99.90;;;;;;4957612;28;20271;-86
2023/01/06 12:15:58;;;;;;;2.03;0.90;;;10.20;99.90;;;;;;4953830;28;20215;-87
2023/01/06 12:18:30;;;;;;;7.20;1.47;;;10.30;99.90;;;;;;4955900;28;20298;-87
2023/01/06 12:20:59;;;;;;;1.23;1.07;;;10.30;99.90;;;;;;4954041;28;20213;-86
2023/01/06 12:23:37;;;;;;;2.23;1.07;;;10.20;99.90;;;;;;4951153;28;20225;-86
2023/01/06 12:26:11;;;;;;;2.23;0.93;;;10.10;99.90;;;;;;4955258;28;20237;-87
2023/01/06 12:28:40;;;;;;;1.50;0.57;;;10.10;99.90;;;;;;4953657;28;20241;-86
2023/01/06 12:31:17;;;;;;;1.83;1.73;;;10.10;99.90;;;;;;4954533;28;20188;-87
2023/01/06 12:34:04;;;;;;;0.40;0.40;;;10.00;99.90;;;;;;4955880;28;20266;-87
2023/01/06 12:37:00;;;;;;;0.83;0.70;;;10.10;99.90;;;;;;4954955;28;20213;-86
2023/01/06 12:39:35;;;;;;;0.83;0.73;;;10.10;99.90;;;;;;4954349;28;20213;-85
2023/01/06 12:42:33;;;;;;;3.67;1.87;;;10.10;99.90;;;;;;4972200;28;20239;-86
2023/01/06 12:45:23;;;;;;;0.37;0.37;;;10.20;99.90;;;;;;4953578;28;20216;-86
2023/01/06 12:47:58;;;;;;;0.40;0.40;;;10.20;99.90;;;;;;4957378;28;20757;-86
2023/01/06 12:50:40;;;;;;;4.70;1.60;;;10.30;99.90;;;;;;4955065;28;20220;-84
2023/01/06 12:53:17;;;;;;;0.30;0.30;;;10.40;99.90;;;;;;4969128;28;20236;-86
2023/01/06 12:56:20;;;;;;;3.93;1.13;;;10.30;99.90;;;;;;4954836;28;20223;-84
2023/01/06 12:59:16;;;;;;;2.30;1.30;;;10.30;99.90;;;;;;4952816;28;20286;-84
2023/01/06 13:01:49;;;;;;;5.53;1.90;;;10.20;99.90;;;;;;4952455;28;20216;-84
2023/01/06 13:04:51;;;;;;;2.73;0.60;;;10.20;99.90;;;;;;4954377;28;20196;-84
2023/01/06 13:07:17;;;;;;;1.07;0.67;;;10.10;99.90;;;;;;4954735;28;20228;-87
2023/01/06 13:10:02;;;;;;;0.27;0.27;;;10.10;99.90;;;;;;4954277;28;20189;-86
2023/01/06 13:13:29;;;;;;;10.77;0.97;;;10.00;99.90;;;;;;4953306;28;20264;-86
2023/01/06 13:15:59;;;;;;;0.53;0.53;;;10.00;99.90;;;;;;4921427;28;20217;-86
2023/01/06 13:18:50;;;;;;;0.40;0.30;;;9.90;99.90;;;;;;4955375;28;20181;-86